sensor_id;sensor_type;location;lat;lon;timestamp;temperature;humidity
50804;DHT22;37205;51.434;6.756;2022-07-23T00:02:20;17.70;99.90
50804;DHT22;37205;51.434;6.756;2022-07-23T00:04:45;17.70;99.90
50804;DHT22;37205;51.434;6.756;2022-07-23T00:07:11;17.70;99.90
50804;DHT22;37205;51.434;6.756;2022-07-23T00:09:41;17.60;99.90
50804;DHT22;37205;51.434;6.756;2022-07-23T00:12:07;17.60;99.90
50804;DHT22;37205;51.434;6.756;2022-07-23T00:14:32;17.60;99.90
50804;DHT22;37205;51.434;6.756;2022-07-23T00:16:58;17.60;99.90
50804;DHT22;37205;51.434;6.756;2022-07-23T00:19:23;17.60;99.90
50804;DHT22;37205;51.434;6.756;2022-07-23T00:21:49;17.50;99.90
50804;DHT22;37205;51.434;6.756;2022-07-23T00:24:14;17.50;99.90
50804;DHT22;37205;51.434;6.756;2022-07-23T00:26:40;17.50;99.90
50804;DHT22;37205;51.434;6.756;2022-07-23T00:29:05;17.50;99.90
50804;DHT22;37205;51.434;6.756;2022-07-23T00:31:31;17.50;99.90
50804;DHT22;37205;51.434;6.756;2022-07-23T00:33:57;17.50;99.90
50804;DHT22;37205;51.434;6.756;2022-07-23T00:36:23;17.40;99.90
50804;DHT22;37205;51.434;6.756;2022-07-23T00:38:49;17.50;99.90
50804;DHT22;37205;51.434;6.756;2022-07-23T00:41:18;17.40;99.90
50804;DHT22;37205;51.434;6.756;2022-07-23T00:43:43;17.40;99.90
50804;DHT22;37205;51.434;6.756;2022-07-23T00:46:09;17.40;99.90
50804;DHT22;37205;51.434;6.756;2022-07-23T00:48:35;17.40;99.90
50804;DHT22;37205;51.434;6.756;2022-07-23T00:51:00;17.40;99.90
50804;DHT22;37205;51.434;6.756;2022-07-23T00:53:26;17.40;99.90
50804;DHT22;37205;51.434;6.756;2022-07-23T00:55:52;17.40;99.90
50804;DHT22;37205;51.434;6.756;2022-07-23T00:58:19;17.30;99.90
50804;DHT22;37205;51.434;6.756;2022-07-23T01:00:45;17.30;99.90
50804;DHT22;37205;51.434;6.756;2022-07-23T01:03:10;17.20;99.90
50804;DHT22;37205;51.434;6.756;2022-07-23T01:05:36;17.30;99.90
50804;DHT22;37205;51.434;6.756;2022-07-23T01:08:02;17.20;99.90
50804;DHT22;37205;51.434;6.756;2022-07-23T01:10:27;17.20;99.90
50804;DHT22;37205;51.434;6.756;2022-07-23T01:13:00;17.10;99.90
50804;DHT22;37205;51.434;6.756;2022-07-23T01:15:27;17.10;99.90
50804;DHT22;37205;51.434;6.756;2022-07-23T01:17:53;17.10;99.90
50804;DHT22;37205;51.434;6.756;2022-07-23T01:20:19;17.10;99.90
50804;DHT22;37205;51.434;6.756;2022-07-23T01:22:45;17.10;99.90
50804;DHT22;37205;51.434;6.756;2022-07-23T01:25:11;17.10;99.90
50804;DHT22;37205;51.434;6.756;2022-07-23T01:27:36;17.10;99.90
50804;DHT22;37205;51.434;6.756;2022-07-23T01:30:03;17.00;99.90
50804;DHT22;37205;51.434;6.756;2022-07-23T01:32:29;17.10;99.90
50804;DHT22;37205;51.434;6.756;2022-07-23T01:34:55;17.10;99.90
50804;DHT22;37205;51.434;6.756;2022-07-23T01:37:20;17.10;99.90
50804;DHT22;37205;51.434;6.756;2022-07-23T01:39:46;17.10;99.90
50804;DHT22;37205;51.434;6.756;2022-07-23T01:42:11;17.10;99.90
50804;DHT22;37205;51.434;6.756;2022-07-23T01:44:37;17.00;99.90
50804;DHT22;37205;51.434;6.756;2022-07-23T01:47:02;17.00;99.90
50804;DHT22;37205;51.434;6.756;2022-07-23T01:49:28;17.00;99.90
50804;DHT22;37205;51.434;6.756;2022-07-23T01:51:54;17.00;99.90
50804;DHT22;37205;51.434;6.756;2022-07-23T01:54:29;17.00;99.90
50804;DHT22;37205;51.434;6.756;2022-07-23T01:56:56;16.90;99.90
50804;DHT22;37205;51.434;6.756;2022-07-23T01:59:22;16.90;99.90
50804;DHT22;37205;51.434;6.756;2022-07-23T02:01:48;16.90;99.90
50804;DHT22;37205;51.434;6.756;2022-07-23T02:04:19;16.80;99.90
50804;DHT22;37205;51.434;6.756;2022-07-23T02:06:45;16.80;99.90
50804;DHT22;37205;51.434;6.756;2022-07-23T02:09:16;16.80;99.90
50804;DHT22;37205;51.434;6.756;2022-07-23T02:11:42;16.70;99.90
50804;DHT22;37205;51.434;6.756;2022-07-23T02:14:07;16.70;99.90
50804;DHT22;37205;51.434;6.756;2022-07-23T02:16:33;16.70;99.90
50804;DHT22;37205;51.434;6.756;2022-07-23T02:18:59;16.70;99.90
50804;DHT22;37205;51.434;6.756;2022-07-23T02:21:24;16.60;99.90
50804;DHT22;37205;51.434;6.756;2022-07-23T02:23:50;16.60;99.90
50804;DHT22;37205;51.434;6.756;2022-07-23T02:26:15;16.60;99.90
50804;DHT22;37205;51.434;6.756;2022-07-23T02:28:41;16.60;99.90
50804;DHT22;37205;51.434;6.756;2022-07-23T02:31:06;16.60;99.90
50804;DHT22;37205;51.434;6.756;2022-07-23T02:33:32;16.60;99.90
50804;DHT22;37205;51.434;6.756;2022-07-23T02:35:59;16.60;99.90
50804;DHT22;37205;51.434;6.756;2022-07-23T02:38:24;16.60;99.90
50804;DHT22;37205;51.434;6.756;2022-07-23T02:40:50;16.60;99.90
50804;DHT22;37205;51.434;6.756;2022-07-23T02:43:15;16.60;99.90
50804;DHT22;37205;51.434;6.756;2022-07-23T02:45:41;16.50;99.90
50804;DHT22;37205;51.434;6.756;2022-07-23T02:48:06;16.50;99.90
50804;DHT22;37205;51.434;6.756;2022-07-23T02:50:32;16.50;99.90
50804;DHT22;37205;51.434;6.756;2022-07-23T02:52:58;16.50;99.90
50804;DHT22;37205;51.434;6.756;2022-07-23T02:55:23;16.40;99.90
50804;DHT22;37205;51.434;6.756;2022-07-23T02:57:49;16.40;99.90
50804;DHT22;37205;51.434;6.756;2022-07-23T03:00:15;16.40;99.90
50804;DHT22;37205;51.434;6.756;2022-07-23T03:02:40;16.30;99.90
50804;DHT22;37205;51.434;6.756;2022-07-23T03:05:06;16.30;99.90
50804;DHT22;37205;51.434;6.756;2022-07-23T03:07:32;16.20;99.90
50804;DHT22;37205;51.434;6.756;2022-07-23T03:09:57;16.20;99.90
50804;DHT22;37205;51.434;6.756;2022-07-23T03:12:23;16.10;99.90
50804;DHT22;37205;51.434;6.756;2022-07-23T03:14:48;16.10;99.90
50804;DHT22;37205;51.434;6.756;2022-07-23T03:17:14;16.10;99.90
50804;DHT22;37205;51.434;6.756;2022-07-23T03:19:39;16.10;99.90
50804;DHT22;37205;51.434;6.756;2022-07-23T03:22:05;16.10;99.90
50804;DHT22;37205;51.434;6.756;2022-07-23T03:24:31;16.10;99.90
50804;DHT22;37205;51.434;6.756;2022-07-23T03:27:15;16.00;99.90
50804;DHT22;37205;51.434;6.756;2022-07-23T03:29:41;16.00;99.90
50804;DHT22;37205;51.434;6.756;2022-07-23T03:32:07;15.90;99.90
50804;DHT22;37205;51.434;6.756;2022-07-23T03:34:32;15.90;99.90
50804;DHT22;37205;51.434;6.756;2022-07-23T03:36:58;15.90;99.90
50804;DHT22;37205;51.434;6.756;2022-07-23T03:39:24;15.80;99.90
50804;DHT22;37205;51.434;6.756;2022-07-23T03:41:49;15.80;99.90
50804;DHT22;37205;51.434;6.756;2022-07-23T03:44:15;15.80;99.90
50804;DHT22;37205;51.434;6.756;2022-07-23T03:46:40;15.80;99.90
50804;DHT22;37205;51.434;6.756;2022-07-23T03:49:06;15.80;99.90
50804;DHT22;37205;51.434;6.756;2022-07-23T03:51:31;15.80;99.90
50804;DHT22;37205;51.434;6.756;2022-07-23T03:53:57;15.70;99.90
50804;DHT22;37205;51.434;6.756;2022-07-23T03:56:23;15.80;99.90
50804;DHT22;37205;51.434;6.756;2022-07-23T03:58:49;15.70;99.90
50804;DHT22;37205;51.434;6.756;2022-07-23T04:01:15;15.70;99.90
50804;DHT22;37205;51.434;6.756;2022-07-23T04:03:40;15.70;99.90
50804;DHT22;37205;51.434;6.756;2022-07-23T04:06:06;15.70;99.90
50804;DHT22;37205;51.434;6.756;2022-07-23T04:08:32;15.70;99.90
50804;DHT22;37205;51.434;6.756;2022-07-23T04:10:57;15.80;99.90
50804;DHT22;37205;51.434;6.756;2022-07-23T04:13:23;15.70;99.90
50804;DHT22;37205;51.434;6.756;2022-07-23T04:15:48;15.70;99.90
50804;DHT22;37205;51.434;6.756;2022-07-23T04:18:16;15.70;99.90
50804;DHT22;37205;51.434;6.756;2022-07-23T04:20:47;15.70;99.90
50804;DHT22;37205;51.434;6.756;2022-07-23T04:23:12;15.70;99.90
50804;DHT22;37205;51.434;6.756;2022-07-23T04:25:38;15.70;99.90
50804;DHT22;37205;51.434;6.756;2022-07-23T04:28:03;15.70;99.90
50804;DHT22;37205;51.434;6.756;2022-07-23T04:30:29;15.70;99.90
50804;DHT22;37205;51.434;6.756;2022-07-23T04:32:54;15.70;99.90
50804;DHT22;37205;51.434;6.756;2022-07-23T04:35:20;15.70;99.90
50804;DHT22;37205;51.434;6.756;2022-07-23T04:37:46;15.70;99.90
50804;DHT22;37205;51.434;6.756;2022-07-23T04:40:12;15.70;99.90
50804;DHT22;37205;51.434;6.756;2022-07-23T04:42:38;15.70;99.90
50804;DHT22;37205;51.434;6.756;2022-07-23T04:45:04;15.70;99.90
50804;DHT22;37205;51.434;6.756;2022-07-23T04:47:30;15.70;99.90
50804;DHT22;37205;51.434;6.756;2022-07-23T04:49:56;15.70;99.90
50804;DHT22;37205;51.434;6.756;2022-07-23T04:52:22;15.80;99.90
50804;DHT22;37205;51.434;6.756;2022-07-23T04:54:47;15.80;99.90
50804;DHT22;37205;51.434;6.756;2022-07-23T04:57:13;15.80;99.90
50804;DHT22;37205;51.434;6.756;2022-07-23T04:59:39;15.80;99.90
50804;DHT22;37205;51.434;6.756;2022-07-23T05:02:04;15.80;99.90
50804;DHT22;37205;51.434;6.756;2022-07-23T05:04:30;15.90;99.90
50804;DHT22;37205;51.434;6.756;2022-07-23T05:06:56;15.80;99.90
50804;DHT22;37205;51.434;6.756;2022-07-23T05:09:22;15.90;99.90
50804;DHT22;37205;51.434;6.756;2022-07-23T05:11:48;15.90;99.90
50804;DHT22;37205;51.434;6.756;2022-07-23T05:14:13;15.90;99.90
50804;DHT22;37205;51.434;6.756;2022-07-23T05:16:39;16.00;99.90
50804;DHT22;37205;51.434;6.756;2022-07-23T05:19:05;16.00;99.90
50804;DHT22;37205;51.434;6.756;2022-07-23T05:21:30;16.10;99.90
50804;DHT22;37205;51.434;6.756;2022-07-23T05:23:56;16.00;99.90
50804;DHT22;37205;51.434;6.756;2022-07-23T05:26:21;16.10;99.90
50804;DHT22;37205;51.434;6.756;2022-07-23T05:28:47;16.10;99.90
50804;DHT22;37205;51.434;6.756;2022-07-23T05:31:12;16.10;99.90
50804;DHT22;37205;51.434;6.756;2022-07-23T05:33:38;16.20;99.90
50804;DHT22;37205;51.434;6.756;2022-07-23T05:36:04;16.20;99.90
50804;DHT22;37205;51.434;6.756;2022-07-23T05:38:31;16.20;99.90
50804;DHT22;37205;51.434;6.756;2022-07-23T05:40:57;16.30;99.90
50804;DHT22;37205;51.434;6.756;2022-07-23T05:43:22;16.40;99.90
50804;DHT22;37205;51.434;6.756;2022-07-23T05:45:48;16.40;99.90
50804;DHT22;37205;51.434;6.756;2022-07-23T05:48:13;16.50;99.90
50804;DHT22;37205;51.434;6.756;2022-07-23T05:50:39;16.50;99.90
50804;DHT22;37205;51.434;6.756;2022-07-23T05:53:04;16.50;99.90
50804;DHT22;37205;51.434;6.756;2022-07-23T05:55:30;16.50;99.90
50804;DHT22;37205;51.434;6.756;2022-07-23T05:57:57;16.60;99.90
50804;DHT22;37205;51.434;6.756;2022-07-23T06:00:24;16.60;99.90
50804;DHT22;37205;51.434;6.756;2022-07-23T06:02:50;16.70;99.90
50804;DHT22;37205;51.434;6.756;2022-07-23T06:05:16;16.70;99.90
50804;DHT22;37205;51.434;6.756;2022-07-23T06:07:41;16.70;99.90
50804;DHT22;37205;51.434;6.756;2022-07-23T06:10:07;16.70;99.90
50804;DHT22;37205;51.434;6.756;2022-07-23T06:12:33;16.80;99.90
50804;DHT22;37205;51.434;6.756;2022-07-23T06:14:59;16.80;99.90
50804;DHT22;37205;51.434;6.756;2022-07-23T06:17:24;16.90;99.90
50804;DHT22;37205;51.434;6.756;2022-07-23T06:19:50;17.00;99.90
50804;DHT22;37205;51.434;6.756;2022-07-23T06:22:16;17.10;99.90
50804;DHT22;37205;51.434;6.756;2022-07-23T06:24:41;17.10;99.90
50804;DHT22;37205;51.434;6.756;2022-07-23T06:27:07;17.20;99.90
50804;DHT22;37205;51.434;6.756;2022-07-23T06:29:32;17.30;99.90
50804;DHT22;37205;51.434;6.756;2022-07-23T06:31:58;17.30;99.90
50804;DHT22;37205;51.434;6.756;2022-07-23T06:34:24;17.30;99.90
50804;DHT22;37205;51.434;6.756;2022-07-23T06:36:50;17.40;99.90
50804;DHT22;37205;51.434;6.756;2022-07-23T06:39:15;17.40;99.90
50804;DHT22;37205;51.434;6.756;2022-07-23T06:41:41;17.50;99.90
50804;DHT22;37205;51.434;6.756;2022-07-23T06:44:07;17.50;99.90
50804;DHT22;37205;51.434;6.756;2022-07-23T06:46:32;17.60;99.90
50804;DHT22;37205;51.434;6.756;2022-07-23T06:48:58;17.50;99.90
50804;DHT22;37205;51.434;6.756;2022-07-23T06:51:24;17.60;99.90
50804;DHT22;37205;51.434;6.756;2022-07-23T06:53:49;17.70;99.90
50804;DHT22;37205;51.434;6.756;2022-07-23T06:56:15;17.70;99.90
50804;DHT22;37205;51.434;6.756;2022-07-23T06:58:41;17.80;99.90
50804;DHT22;37205;51.434;6.756;2022-07-23T07:01:06;17.80;99.90
50804;DHT22;37205;51.434;6.756;2022-07-23T07:03:32;18.00;99.90
50804;DHT22;37205;51.434;6.756;2022-07-23T07:05:57;18.00;99.90
50804;DHT22;37205;51.434;6.756;2022-07-23T07:08:23;18.10;99.90
50804;DHT22;37205;51.434;6.756;2022-07-23T07:10:49;18.00;99.90
50804;DHT22;37205;51.434;6.756;2022-07-23T07:13:15;18.10;99.90
50804;DHT22;37205;51.434;6.756;2022-07-23T07:15:41;18.20;99.90
50804;DHT22;37205;51.434;6.756;2022-07-23T07:18:06;18.10;99.90
50804;DHT22;37205;51.434;6.756;2022-07-23T07:20:32;18.20;99.90
50804;DHT22;37205;51.434;6.756;2022-07-23T07:22:57;18.30;99.90
50804;DHT22;37205;51.434;6.756;2022-07-23T07:25:23;18.30;99.90
50804;DHT22;37205;51.434;6.756;2022-07-23T07:27:49;18.40;99.90
50804;DHT22;37205;51.434;6.756;2022-07-23T07:30:14;18.40;99.90
50804;DHT22;37205;51.434;6.756;2022-07-23T07:32:40;18.40;99.90
50804;DHT22;37205;51.434;6.756;2022-07-23T07:35:06;18.50;99.90
50804;DHT22;37205;51.434;6.756;2022-07-23T07:37:32;18.50;99.90
50804;DHT22;37205;51.434;6.756;2022-07-23T07:39:58;18.60;99.90
50804;DHT22;37205;51.434;6.756;2022-07-23T07:42:23;18.50;99.90
50804;DHT22;37205;51.434;6.756;2022-07-23T07:44:49;18.60;99.90
50804;DHT22;37205;51.434;6.756;2022-07-23T07:47:14;18.60;99.90
50804;DHT22;37205;51.434;6.756;2022-07-23T07:49:44;18.60;99.90
50804;DHT22;37205;51.434;6.756;2022-07-23T07:52:10;18.60;99.90
50804;DHT22;37205;51.434;6.756;2022-07-23T07:54:36;18.60;99.90
50804;DHT22;37205;51.434;6.756;2022-07-23T07:57:01;18.60;99.90
50804;DHT22;37205;51.434;6.756;2022-07-23T07:59:27;18.60;99.90
50804;DHT22;37205;51.434;6.756;2022-07-23T08:01:53;18.60;99.90
50804;DHT22;37205;51.434;6.756;2022-07-23T08:04:19;18.60;99.90
50804;DHT22;37205;51.434;6.756;2022-07-23T08:06:44;18.60;99.90
50804;DHT22;37205;51.434;6.756;2022-07-23T08:09:10;18.60;99.90
50804;DHT22;37205;51.434;6.756;2022-07-23T08:11:35;18.70;99.90
50804;DHT22;37205;51.434;6.756;2022-07-23T08:14:01;18.80;99.90
50804;DHT22;37205;51.434;6.756;2022-07-23T08:16:27;18.90;99.90
50804;DHT22;37205;51.434;6.756;2022-07-23T08:18:52;18.80;99.90
50804;DHT22;37205;51.434;6.756;2022-07-23T08:21:18;18.90;99.90
50804;DHT22;37205;51.434;6.756;2022-07-23T08:23:44;18.90;99.90
50804;DHT22;37205;51.434;6.756;2022-07-23T08:26:09;19.10;99.90
50804;DHT22;37205;51.434;6.756;2022-07-23T08:28:35;19.10;99.90
50804;DHT22;37205;51.434;6.756;2022-07-23T08:31:01;19.10;99.90
50804;DHT22;37205;51.434;6.756;2022-07-23T08:33:27;19.10;99.90
50804;DHT22;37205;51.434;6.756;2022-07-23T08:35:52;19.10;99.90
50804;DHT22;37205;51.434;6.756;2022-07-23T08:38:20;19.30;99.90
50804;DHT22;37205;51.434;6.756;2022-07-23T08:40:52;19.20;99.90
50804;DHT22;37205;51.434;6.756;2022-07-23T08:43:20;19.40;99.90
50804;DHT22;37205;51.434;6.756;2022-07-23T08:45:48;19.50;99.90
50804;DHT22;37205;51.434;6.756;2022-07-23T08:48:16;19.50;99.90
50804;DHT22;37205;51.434;6.756;2022-07-23T08:50:46;19.60;99.90
50804;DHT22;37205;51.434;6.756;2022-07-23T08:53:13;19.70;99.90
50804;DHT22;37205;51.434;6.756;2022-07-23T08:55:39;19.80;99.90
50804;DHT22;37205;51.434;6.756;2022-07-23T08:58:06;19.80;99.90
50804;DHT22;37205;51.434;6.756;2022-07-23T09:00:32;19.80;99.90
50804;DHT22;37205;51.434;6.756;2022-07-23T09:02:58;20.00;99.90
50804;DHT22;37205;51.434;6.756;2022-07-23T09:05:24;20.00;99.90
50804;DHT22;37205;51.434;6.756;2022-07-23T09:08:11;20.00;99.90
50804;DHT22;37205;51.434;6.756;2022-07-23T09:10:55;20.00;99.90
50804;DHT22;37205;51.434;6.756;2022-07-23T09:13:41;20.00;99.90
50804;DHT22;37205;51.434;6.756;2022-07-23T09:16:27;20.10;99.90
50804;DHT22;37205;51.434;6.756;2022-07-23T09:18:57;20.20;99.90
50804;DHT22;37205;51.434;6.756;2022-07-23T09:21:24;20.30;99.90
50804;DHT22;37205;51.434;6.756;2022-07-23T09:24:19;20.30;99.90
50804;DHT22;37205;51.434;6.756;2022-07-23T09:26:47;20.40;99.90
50804;DHT22;37205;51.434;6.756;2022-07-23T09:29:21;20.40;99.90
50804;DHT22;37205;51.434;6.756;2022-07-23T09:31:50;20.50;99.90
50804;DHT22;37205;51.434;6.756;2022-07-23T09:36:47;20.40;99.90
50804;DHT22;37205;51.434;6.756;2022-07-23T09:39:14;20.40;99.90
50804;DHT22;37205;51.434;6.756;2022-07-23T09:41:42;20.40;99.90
50804;DHT22;37205;51.434;6.756;2022-07-23T09:44:14;20.50;99.90
50804;DHT22;37205;51.434;6.756;2022-07-23T09:46:40;20.70;99.90
50804;DHT22;37205;51.434;6.756;2022-07-23T09:49:23;20.70;99.90
50804;DHT22;37205;51.434;6.756;2022-07-23T09:51:49;20.70;99.90
50804;DHT22;37205;51.434;6.756;2022-07-23T09:54:35;20.70;99.90
50804;DHT22;37205;51.434;6.756;2022-07-23T09:57:09;20.70;99.90
50804;DHT22;37205;51.434;6.756;2022-07-23T09:59:39;20.80;99.90
50804;DHT22;37205;51.434;6.756;2022-07-23T10:02:07;20.80;99.90
50804;DHT22;37205;51.434;6.756;2022-07-23T10:04:33;20.80;99.90
50804;DHT22;37205;51.434;6.756;2022-07-23T10:07:02;20.80;99.90
50804;DHT22;37205;51.434;6.756;2022-07-23T10:09:31;20.90;99.90
50804;DHT22;37205;51.434;6.756;2022-07-23T10:12:12;21.00;99.90
50804;DHT22;37205;51.434;6.756;2022-07-23T10:14:41;21.00;99.90
50804;DHT22;37205;51.434;6.756;2022-07-23T10:17:07;21.00;99.90
50804;DHT22;37205;51.434;6.756;2022-07-23T10:19:33;21.10;99.90
50804;DHT22;37205;51.434;6.756;2022-07-23T10:22:06;21.20;99.90
50804;DHT22;37205;51.434;6.756;2022-07-23T10:24:58;21.20;99.90
50804;DHT22;37205;51.434;6.756;2022-07-23T10:28:08;21.30;99.90
50804;DHT22;37205;51.434;6.756;2022-07-23T10:33:56;21.50;99.90
50804;DHT22;37205;51.434;6.756;2022-07-23T10:36:41;21.60;99.90
50804;DHT22;37205;51.434;6.756;2022-07-23T10:39:17;21.60;99.90
50804;DHT22;37205;51.434;6.756;2022-07-23T10:41:43;21.70;99.90
50804;DHT22;37205;51.434;6.756;2022-07-23T10:46:57;21.90;99.90
50804;DHT22;37205;51.434;6.756;2022-07-23T10:49:42;21.90;99.90
50804;DHT22;37205;51.434;6.756;2022-07-23T10:54:46;22.00;99.90
50804;DHT22;37205;51.434;6.756;2022-07-23T10:57:14;22.00;99.90
50804;DHT22;37205;51.434;6.756;2022-07-23T11:02:41;22.00;99.90
50804;DHT22;37205;51.434;6.756;2022-07-23T11:05:12;22.00;99.90
50804;DHT22;37205;51.434;6.756;2022-07-23T11:31:57;22.50;99.90
50804;DHT22;37205;51.434;6.756;2022-07-23T11:37:03;22.50;99.90
50804;DHT22;37205;51.434;6.756;2022-07-23T11:39:30;22.60;99.90
50804;DHT22;37205;51.434;6.756;2022-07-23T11:41:57;22.70;99.90
50804;DHT22;37205;51.434;6.756;2022-07-23T11:44:30;22.70;99.90
50804;DHT22;37205;51.434;6.756;2022-07-23T11:46:57;22.70;99.90
50804;DHT22;37205;51.434;6.756;2022-07-23T11:49:24;22.60;99.90
50804;DHT22;37205;51.434;6.756;2022-07-23T11:52:05;22.70;99.90
50804;DHT22;37205;51.434;6.756;2022-07-23T11:54:31;22.80;99.90
50804;DHT22;37205;51.434;6.756;2022-07-23T11:56:59;22.80;99.90
50804;DHT22;37205;51.434;6.756;2022-07-23T11:59:26;22.90;99.90
50804;DHT22;37205;51.434;6.756;2022-07-23T12:02:00;23.00;99.90
50804;DHT22;37205;51.434;6.756;2022-07-23T12:07:03;23.20;99.90
50804;DHT22;37205;51.434;6.756;2022-07-23T12:09:29;23.20;99.90
50804;DHT22;37205;51.434;6.756;2022-07-23T12:11:59;23.20;99.90
50804;DHT22;37205;51.434;6.756;2022-07-23T12:14:24;23.10;99.90
50804;DHT22;37205;51.434;6.756;2022-07-23T12:17:11;23.10;99.90
50804;DHT22;37205;51.434;6.756;2022-07-23T12:19:37;23.10;99.90
50804;DHT22;37205;51.434;6.756;2022-07-23T12:22:03;23.20;99.90
50804;DHT22;37205;51.434;6.756;2022-07-23T12:24:29;23.20;99.90
50804;DHT22;37205;51.434;6.756;2022-07-23T12:27:10;23.30;99.90
50804;DHT22;37205;51.434;6.756;2022-07-23T12:29:36;23.30;99.90
50804;DHT22;37205;51.434;6.756;2022-07-23T12:32:02;23.40;99.90
50804;DHT22;37205;51.434;6.756;2022-07-23T12:34:28;23.30;99.90
50804;DHT22;37205;51.434;6.756;2022-07-23T12:36:53;23.20;99.90
50804;DHT22;37205;51.434;6.756;2022-07-23T12:39:31;23.30;99.90
50804;DHT22;37205;51.434;6.756;2022-07-23T12:41:57;23.50;99.90
50804;DHT22;37205;51.434;6.756;2022-07-23T12:44:23;23.60;99.90
50804;DHT22;37205;51.434;6.756;2022-07-23T12:46:54;23.70;99.90
50804;DHT22;37205;51.434;6.756;2022-07-23T12:49:27;23.70;99.90
50804;DHT22;37205;51.434;6.756;2022-07-23T12:51:52;23.80;99.90
50804;DHT22;37205;51.434;6.756;2022-07-23T12:54:18;23.80;99.90
50804;DHT22;37205;51.434;6.756;2022-07-23T12:56:51;24.00;99.90
50804;DHT22;37205;51.434;6.756;2022-07-23T12:59:17;24.10;99.90
50804;DHT22;37205;51.434;6.756;2022-07-23T13:01:44;24.20;99.90
50804;DHT22;37205;51.434;6.756;2022-07-23T13:04:21;24.30;99.80
50804;DHT22;37205;51.434;6.756;2022-07-23T13:06:49;24.50;99.80
50804;DHT22;37205;51.434;6.756;2022-07-23T13:09:21;24.40;99.10
50804;DHT22;37205;51.434;6.756;2022-07-23T13:11:47;24.30;99.40
50804;DHT22;37205;51.434;6.756;2022-07-23T13:14:14;24.40;99.90
50804;DHT22;37205;51.434;6.756;2022-07-23T13:16:40;24.40;99.20
50804;DHT22;37205;51.434;6.756;2022-07-23T13:19:06;24.50;99.60
50804;DHT22;37205;51.434;6.756;2022-07-23T13:21:32;24.50;99.60
50804;DHT22;37205;51.434;6.756;2022-07-23T13:23:57;24.80;99.90
50804;DHT22;37205;51.434;6.756;2022-07-23T13:26:24;25.00;99.40
50804;DHT22;37205;51.434;6.756;2022-07-23T13:28:49;25.20;99.20
50804;DHT22;37205;51.434;6.756;2022-07-23T13:31:16;25.30;98.60
50804;DHT22;37205;51.434;6.756;2022-07-23T13:33:42;25.40;98.30
50804;DHT22;37205;51.434;6.756;2022-07-23T13:36:07;25.80;97.70
50804;DHT22;37205;51.434;6.756;2022-07-23T13:38:33;25.90;97.70
50804;DHT22;37205;51.434;6.756;2022-07-23T13:40:59;26.40;96.80
50804;DHT22;37205;51.434;6.756;2022-07-23T13:43:25;26.90;96.50
50804;DHT22;37205;51.434;6.756;2022-07-23T13:45:52;27.90;94.30
50804;DHT22;37205;51.434;6.756;2022-07-23T13:48:19;28.20;93.50
50804;DHT22;37205;51.434;6.756;2022-07-23T13:50:46;29.00;92.20
50804;DHT22;37205;51.434;6.756;2022-07-23T13:53:13;29.00;91.60
50804;DHT22;37205;51.434;6.756;2022-07-23T13:55:40;29.50;91.70
50804;DHT22;37205;51.434;6.756;2022-07-23T13:58:07;30.00;90.10
50804;DHT22;37205;51.434;6.756;2022-07-23T14:00:36;30.20;87.80
50804;DHT22;37205;51.434;6.756;2022-07-23T14:03:02;30.60;87.70
50804;DHT22;37205;51.434;6.756;2022-07-23T14:05:28;31.40;87.50
50804;DHT22;37205;51.434;6.756;2022-07-23T14:07:54;30.90;83.30
50804;DHT22;37205;51.434;6.756;2022-07-23T14:10:21;30.90;83.60
50804;DHT22;37205;51.434;6.756;2022-07-23T14:12:48;31.80;82.10
50804;DHT22;37205;51.434;6.756;2022-07-23T14:15:15;31.40;81.20
50804;DHT22;37205;51.434;6.756;2022-07-23T14:17:42;31.00;81.50
50804;DHT22;37205;51.434;6.756;2022-07-23T14:20:09;31.00;80.80
50804;DHT22;37205;51.434;6.756;2022-07-23T14:22:35;30.90;81.40
50804;DHT22;37205;51.434;6.756;2022-07-23T14:25:00;31.70;81.50
50804;DHT22;37205;51.434;6.756;2022-07-23T14:27:27;32.20;79.50
50804;DHT22;37205;51.434;6.756;2022-07-23T14:29:53;31.80;78.30
50804;DHT22;37205;51.434;6.756;2022-07-23T14:32:20;31.70;78.10
50804;DHT22;37205;51.434;6.756;2022-07-23T14:34:46;31.60;78.30
50804;DHT22;37205;51.434;6.756;2022-07-23T14:37:11;32.20;78.60
50804;DHT22;37205;51.434;6.756;2022-07-23T14:39:38;33.20;77.80
50804;DHT22;37205;51.434;6.756;2022-07-23T14:42:05;34.20;76.60
50804;DHT22;37205;51.434;6.756;2022-07-23T14:44:30;33.50;73.60
50804;DHT22;37205;51.434;6.756;2022-07-23T14:46:56;32.30;73.60
50804;DHT22;37205;51.434;6.756;2022-07-23T14:49:22;32.70;74.50
50804;DHT22;37205;51.434;6.756;2022-07-23T14:51:47;33.10;75.40
50804;DHT22;37205;51.434;6.756;2022-07-23T14:54:13;32.70;74.30
50804;DHT22;37205;51.434;6.756;2022-07-23T14:56:40;32.50;73.90
50804;DHT22;37205;51.434;6.756;2022-07-23T14:59:06;32.50;73.50
50804;DHT22;37205;51.434;6.756;2022-07-23T15:01:32;32.70;74.40
50804;DHT22;37205;51.434;6.756;2022-07-23T15:03:57;33.80;72.90
50804;DHT22;37205;51.434;6.756;2022-07-23T15:06:23;33.70;71.90
50804;DHT22;37205;51.434;6.756;2022-07-23T15:08:49;33.70;71.20
50804;DHT22;37205;51.434;6.756;2022-07-23T15:11:14;33.90;71.00
50804;DHT22;37205;51.434;6.756;2022-07-23T15:13:40;33.70;70.70
50804;DHT22;37205;51.434;6.756;2022-07-23T15:16:06;32.90;71.20
50804;DHT22;37205;51.434;6.756;2022-07-23T15:18:32;33.20;71.30
50804;DHT22;37205;51.434;6.756;2022-07-23T15:20:58;33.60;70.40
50804;DHT22;37205;51.434;6.756;2022-07-23T15:23:23;33.60;71.40
50804;DHT22;37205;51.434;6.756;2022-07-23T15:25:59;33.00;69.80
50804;DHT22;37205;51.434;6.756;2022-07-23T15:28:25;32.80;71.40
50804;DHT22;37205;51.434;6.756;2022-07-23T15:30:51;32.10;71.10
50804;DHT22;37205;51.434;6.756;2022-07-23T15:33:18;31.90;72.00
50804;DHT22;37205;51.434;6.756;2022-07-23T15:35:44;31.50;72.40
50804;DHT22;37205;51.434;6.756;2022-07-23T15:38:10;32.00;73.40
50804;DHT22;37205;51.434;6.756;2022-07-23T15:40:35;32.40;72.90
50804;DHT22;37205;51.434;6.756;2022-07-23T15:43:01;32.60;73.70
50804;DHT22;37205;51.434;6.756;2022-07-23T15:45:30;33.10;72.80
50804;DHT22;37205;51.434;6.756;2022-07-23T15:47:56;32.80;71.30
50804;DHT22;37205;51.434;6.756;2022-07-23T15:50:22;32.60;71.10
50804;DHT22;37205;51.434;6.756;2022-07-23T15:52:48;32.20;71.50
50804;DHT22;37205;51.434;6.756;2022-07-23T15:55:13;31.70;71.80
50804;DHT22;37205;51.434;6.756;2022-07-23T15:57:39;31.20;72.20
50804;DHT22;37205;51.434;6.756;2022-07-23T16:00:05;30.40;73.00
50804;DHT22;37205;51.434;6.756;2022-07-23T16:02:32;29.70;73.90
50804;DHT22;37205;51.434;6.756;2022-07-23T16:04:57;29.40;75.50
50804;DHT22;37205;51.434;6.756;2022-07-23T16:07:23;29.30;75.40
50804;DHT22;37205;51.434;6.756;2022-07-23T16:09:48;29.10;76.80
50804;DHT22;37205;51.434;6.756;2022-07-23T16:12:14;28.80;76.70
50804;DHT22;37205;51.434;6.756;2022-07-23T16:14:40;28.30;77.60